Station Historical Data
Daily Summary for September 14, 2017 Units:  Both    English   Metric
« Previous Day
Next Day »
Daily Weekly Monthly Yearly Custom
  High: Low: Average:
Temperature: 60.4 °F /  15.8 °C 50 °F /  10.0 °C 56.3 °F /  13.5 °C
Dew Point: 59 °F /  15.0 °C 48.4 °F /  9.1 °C 54.9 °F /  12.7 °C
Humidity: 100 % 83 % 95 %
Wind Speed: 6.9 mph /  11.1 km/h - 1.5 mph /  2.4 km/h
Wind Gust: 8.5 mph /  13.7 km/h - -
Wind:- - South
Pressure: 29.9 in /  1011.7 hPa -100 in /  -3386.0 hPa -
Precipitation: 0 in /  0.0 mm    
Historical Graphs
 
 
Tabular Data for September 14, 2017
Time Temperature Dew Point Pressure Wind Wind Speed Wind Gust Humidity Rainfall Rate (Hourly) solar Conditions
00:02 59.9 °F /  15.5 °C 59 °F /  15.0 °C 29.8 in /  1008.0 hPa Calm   2.9 mph /  4.7 km/h 97 % 0 in /  0.0 mm meteobridge W/m2
00:08 59.9 °F /  15.5 °C 59 °F /  15.0 °C 29.8 in /  1008.0 hPa SSW 2.5 mph /  4.0 km/h 2.5 mph /  4.0 km/h 97 % 0 in /  0.0 mm meteobridge W/m2
00:13 59.9 °F /  15.5 °C 58.8 °F /  14.9 °C 29.8 in /  1008.0 hPa SSE 2.5 mph /  4.0 km/h 2.9 mph /  4.7 km/h 96 % 0 in /  0.0 mm meteobridge W/m2
00:23 59.7 °F /  15.4 °C 58.6 °F /  14.8 °C 29.8 in /  1008.0 hPa SSW 1.1 mph /  1.8 km/h 1.6 mph /  2.6 km/h 96 % 0 in /  0.0 mm meteobridge W/m2
00:30 59.7 °F /  15.4 °C 58.8 °F /  14.9 °C 29.8 in /  1008.0 hPa SSW 3.6 mph /  5.8 km/h 3.6 mph /  5.8 km/h 97 % 0 in /  0.0 mm meteobridge W/m2
00:36 59.4 °F /  15.2 °C 58.5 °F /  14.7 °C 29.8 in /  1008.0 hPa SSE 1.6 mph /  2.6 km/h 1.6 mph /  2.6 km/h 97 % 0 in /  0.0 mm meteobridge W/m2
00:43 59.2 °F /  15.1 °C 58.6 °F /  14.8 °C 29.7 in /  1007.0 hPa Calm   1.3 mph /  2.1 km/h 98 % 0 in /  0.0 mm meteobridge W/m2
00:49 59.2 °F /  15.1 °C 58.6 °F /  14.8 °C 29.7 in /  1007.0 hPa SSW 2.5 mph /  4.0 km/h 2.5 mph /  4.0 km/h 98 % 0 in /  0.0 mm meteobridge W/m2
00:55 59 °F /  15.0 °C 58.5 °F /  14.7 °C 29.8 in /  1008.0 hPa Calm   2.5 mph /  4.0 km/h 98 % 0 in /  0.0 mm meteobridge W/m2
01:02 59 °F /  15.0 °C 58.6 °F /  14.8 °C 29.8 in /  1008.0 hPa SSE 0.9 mph /  1.4 km/h 4.7 mph /  7.6 km/h 99 % 0 in /  0.0 mm meteobridge W/m2
01:09 59 °F /  15.0 °C 58.5 °F /  14.7 °C 29.8 in /  1008.0 hPa Calm     98 % 0 in /  0.0 mm meteobridge W/m2
01:15 58.8 °F /  14.9 °C 58.3 °F /  14.6 °C 29.8 in /  1008.0 hPa ESE 2.9 mph /  4.7 km/h 2.9 mph /  4.7 km/h 98 % 0 in /  0.0 mm meteobridge W/m2
01:21 58.8 °F /  14.9 °C 58.3 °F /  14.6 °C 29.8 in /  1008.0 hPa Calm     98 % 0 in /  0.0 mm meteobridge W/m2
01:27 58.8 °F /  14.9 °C 58.3 °F /  14.6 °C 29.8 in /  1008.0 hPa Calm   2.9 mph /  4.7 km/h 98 % 0 in /  0.0 mm meteobridge W/m2
01:34 58.8 °F /  14.9 °C 58.3 °F /  14.6 °C 29.8 in /  1008.0 hPa SSW 3.6 mph /  5.8 km/h 3.6 mph /  5.8 km/h 98 % 0 in /  0.0 mm meteobridge W/m2
01:40 58.6 °F /  14.8 °C 57.7 °F /  14.3 °C 29.8 in /  1008.0 hPa ESE 1.3 mph /  2.1 km/h 3.1 mph /  5.0 km/h 97 % 0 in /  0.0 mm meteobridge W/m2
01:47 58.6 °F /  14.8 °C 57.7 °F /  14.3 °C 29.8 in /  1008.0 hPa ESE 0.9 mph /  1.4 km/h 0.9 mph /  1.4 km/h 97 % 0 in /  0.0 mm meteobridge W/m2
01:53 58.6 °F /  14.8 °C 57.7 °F /  14.3 °C 29.8 in /  1008.0 hPa Calm     97 % 0 in /  0.0 mm meteobridge W/m2
02:00 58.5 °F /  14.7 °C 57.6 °F /  14.2 °C 29.8 in /  1008.0 hPa Calm     97 % 0 in /  0.0 mm meteobridge W/m2
02:06 58.5 °F /  14.7 °C 57.6 °F /  14.2 °C 29.8 in /  1008.0 hPa Calm   2.5 mph /  4.0 km/h 97 % 0 in /  0.0 mm meteobridge W/m2
02:13 58.5 °F /  14.7 °C 57.6 °F /  14.2 °C 29.7 in /  1007.0 hPa NNE 0.9 mph /  1.4 km/h 2.2 mph /  3.5 km/h 97 % 0 in /  0.0 mm meteobridge W/m2
02:19 58.3 °F /  14.6 °C 57.4 °F /  14.1 °C 29.7 in /  1007.0 hPa SSW 2.5 mph /  4.0 km/h 2.5 mph /  4.0 km/h 97 % 0 in /  0.0 mm meteobridge W/m2
02:26 58.5 °F /  14.7 °C 57.6 °F /  14.2 °C 29.7 in /  1007.0 hPa Calm     97 % 0 in /  0.0 mm meteobridge W/m2
02:32 58.5 °F /  14.7 °C 57.6 °F /  14.2 °C 29.7 in /  1007.0 hPa Calm     97 % 0 in /  0.0 mm meteobridge W/m2
02:39 58.5 °F /  14.7 °C 57.9 °F /  14.4 °C 29.7 in /  1007.0 hPa SSE 1.6 mph /  2.6 km/h 1.6 mph /  2.6 km/h 98 % 0 in /  0.0 mm meteobridge W/m2
02:45 58.3 °F /  14.6 °C 57.7 °F /  14.3 °C 29.7 in /  1007.0 hPa Calm   0.9 mph /  1.4 km/h 98 % 0 in /  0.0 mm meteobridge W/m2
02:51 58.1 °F /  14.5 °C 57.6 °F /  14.2 °C 29.7 in /  1007.0 hPa Calm     98 % 0 in /  0.0 mm meteobridge W/m2
02:56 58.1 °F /  14.5 °C 57.7 °F /  14.3 °C 29.7 in /  1007.0 hPa Calm     99 % 0 in /  0.0 mm meteobridge W/m2
03:03 57.9 °F /  14.4 °C 57.6 °F /  14.2 °C 29.7 in /  1007.0 hPa Calm     99 % 0 in /  0.0 mm meteobridge W/m2
03:09 57.9 °F /  14.4 °C 57.6 °F /  14.2 °C 29.7 in /  1007.0 hPa Calm     99 % 0 in /  0.0 mm meteobridge W/m2
03:15 57.9 °F /  14.4 °C 57.6 °F /  14.2 °C 29.7 in /  1007.0 hPa Calm     99 % 0 in /  0.0 mm meteobridge W/m2
03:22 57.9 °F /  14.4 °C 57.6 °F /  14.2 °C 29.7 in /  1007.0 hPa Calm     99 % 0 in /  0.0 mm meteobridge W/m2
03:28 57.9 °F /  14.4 °C 57.6 °F /  14.2 °C 29.7 in /  1006.0 hPa Calm     99 % 0 in /  0.0 mm meteobridge W/m2
03:34 57.9 °F /  14.4 °C 57.6 °F /  14.2 °C 29.7 in /  1006.0 hPa Calm     99 % 0 in /  0.0 mm meteobridge W/m2
03:40 57.7 °F /  14.3 °C 57.4 °F /  14.1 °C 29.7 in /  1006.0 hPa Calm     99 % 0 in /  0.0 mm meteobridge W/m2
03:47 57.7 °F /  14.3 °C 57.4 °F /  14.1 °C 29.7 in /  1006.0 hPa Calm     99 % 0 in /  0.0 mm meteobridge W/m2
03:52 57.4 °F /  14.1 °C 57.4 °F /  14.1 °C 29.7 in /  1006.0 hPa Calm     100 % 0 in /  0.0 mm meteobridge W/m2
03:58 57.2 °F /  14.0 °C 57.2 °F /  14.0 °C 29.7 in /  1006.0 hPa Calm     100 % 0 in /  0.0 mm meteobridge W/m2
04:04 57 °F /  13.9 °C 57 °F /  13.9 °C 29.7 in /  1006.0 hPa Calm     100 % 0 in /  0.0 mm meteobridge W/m2
04:11 56.7 °F /  13.7 °C 56.7 °F /  13.7 °C 29.7 in /  1005.0 hPa Calm   -998.7 mph /  -1607.4 km/h 100 % 0 in /  0.0 mm meteobridge W/m2
04:17 56.3 °F /  13.5 °C 56.3 °F /  13.5 °C 29.7 in /  1005.0 hPa Calm     100 % 0 in /  0.0 mm meteobridge W/m2
04:23 56.3 °F /  13.5 °C 56.3 °F /  13.5 °C 29.7 in /  1005.0 hPa Calm     100 % 0 in /  0.0 mm meteobridge W/m2
04:30 56.3 °F /  13.5 °C 56.3 °F /  13.5 °C 29.7 in /  1005.0 hPa Calm     100 % 0 in /  0.0 mm meteobridge W/m2
04:36 56.3 °F /  13.5 °C 56.3 °F /  13.5 °C 29.7 in /  1005.0 hPa Calm     100 % 0 in /  0.0 mm meteobridge W/m2
04:43 56.3 °F /  13.5 °C 56.3 °F /  13.5 °C 29.7 in /  1005.0 hPa Calm     100 % 0 in /  0.0 mm meteobridge W/m2
04:49 56.3 °F /  13.5 °C 56.3 °F /  13.5 °C 29.7 in /  1005.0 hPa Calm     100 % 0 in /  0.0 mm meteobridge W/m2
04:55 56.8 °F /  13.8 °C 56.8 °F /  13.8 °C 29.7 in /  1006.0 hPa Calm     100 % 0 in /  0.0 mm meteobridge W/m2
05:02 57.2 °F /  14.0 °C 57.2 °F /  14.0 °C 29.7 in /  1006.0 hPa ENE 0.9 mph /  1.4 km/h 0.9 mph /  1.4 km/h 100 % 0 in /  0.0 mm meteobridge W/m2
05:08 57.2 °F /  14.0 °C 57.2 °F /  14.0 °C 29.7 in /  1006.0 hPa Calm     100 % 0 in /  0.0 mm meteobridge W/m2
05:13 57.4 °F /  14.1 °C 57.4 °F /  14.1 °C 29.7 in /  1006.0 hPa Calm     100 % 0 in /  0.0 mm meteobridge W/m2
05:22 57.6 °F /  14.2 °C 57.6 °F /  14.2 °C 29.7 in /  1006.0 hPa Calm     100 % 0 in /  0.0 mm meteobridge W/m2
05:26 57.6 °F /  14.2 °C 57.6 °F /  14.2 °C 29.7 in /  1006.0 hPa Calm     100 % 0 in /  0.0 mm meteobridge W/m2
05:32 57.4 °F /  14.1 °C 57.4 °F /  14.1 °C 29.7 in /  1006.0 hPa Calm     100 % 0 in /  0.0 mm meteobridge W/m2
05:38 57.6 °F /  14.2 °C 57.6 °F /  14.2 °C 29.7 in /  1006.0 hPa Calm     100 % 0 in /  0.0 mm meteobridge W/m2
05:45 57.6 °F /  14.2 °C 57.6 °F /  14.2 °C 29.7 in /  1006.0 hPa Calm     100 % 0 in /  0.0 mm meteobridge W/m2
05:47 57.6 °F /  14.2 °C 57.6 °F /  14.2 °C 29.7 in /  1006.0 hPa Calm     100 % 0 in /  0.0 mm meteobridge W/m2
05:53 57.6 °F /  14.2 °C 57.6 °F /  14.2 °C 29.7 in /  1006.0 hPa Calm     100 % 0 in /  0.0 mm meteobridge W/m2
06:00 57.6 °F /  14.2 °C 57.6 °F /  14.2 °C 29.7 in /  1006.0 hPa Calm     100 % 0 in /  0.0 mm meteobridge W/m2
06:06 57.6 °F /  14.2 °C 57.6 °F /  14.2 °C 29.7 in /  1006.0 hPa SE 3.1 mph /  5.0 km/h -998.7 mph /  -1607.4 km/h 100 % 0 in /  0.0 mm meteobridge W/m2
06:13 57.6 °F /  14.2 °C 57.6 °F /  14.2 °C 29.7 in /  1006.0 hPa Calm   2.7 mph /  4.3 km/h 100 % 0 in /  0.0 mm meteobridge W/m2
06:19 57.6 °F /  14.2 °C 57.6 °F /  14.2 °C 29.7 in /  1006.0 hPa Calm     100 % 0 in /  0.0 mm meteobridge W/m2
06:25 57.7 °F /  14.3 °C 57.7 °F /  14.3 °C 29.7 in /  1006.0 hPa Calm     100 % 0 in /  0.0 mm meteobridge W/m2
06:32 57.6 °F /  14.2 °C 57.6 °F /  14.2 °C 29.7 in /  1006.0 hPa Calm     100 % 0 in /  0.0 mm meteobridge W/m2
06:38 57.6 °F /  14.2 °C 57.6 °F /  14.2 °C 29.7 in /  1006.0 hPa Calm   0.9 mph /  1.4 km/h 100 % 0 in /  0.0 mm meteobridge W/m2
06:45 57.6 °F /  14.2 °C 57.6 °F /  14.2 °C 29.7 in /  1006.0 hPa SSE 0.9 mph /  1.4 km/h 0.9 mph /  1.4 km/h 100 % 0 in /  0.0 mm meteobridge W/m2
06:51 57.6 °F /  14.2 °C 57.6 °F /  14.2 °C 29.7 in /  1006.0 hPa Calm     100 % 0 in /  0.0 mm meteobridge W/m2
06:58 57.6 °F /  14.2 °C 57.6 °F /  14.2 °C 29.7 in /  1006.0 hPa Calm     100 % 0 in /  0.0 mm meteobridge W/m2
07:04 57.6 °F /  14.2 °C 57.6 °F /  14.2 °C 29.7 in /  1006.0 hPa Calm     100 % 0 in /  0.0 mm meteobridge W/m2
07:11 57.6 °F /  14.2 °C 57.6 °F /  14.2 °C 29.7 in /  1006.0 hPa Calm     100 % 0 in /  0.0 mm meteobridge W/m2
07:17 57.6 °F /  14.2 °C 57.6 °F /  14.2 °C 29.7 in /  1006.0 hPa Calm     100 % 0 in /  0.0 mm meteobridge W/m2
07:23 57.7 °F /  14.3 °C 57.7 °F /  14.3 °C 29.7 in /  1006.0 hPa Calm   -998.7 mph /  -1607.4 km/h 100 % 0 in /  0.0 mm meteobridge W/m2
07:30 57.7 °F /  14.3 °C 57.7 °F /  14.3 °C 29.7 in /  1006.0 hPa WSW 2.7 mph /  4.3 km/h 2.7 mph /  4.3 km/h 100 % 0 in /  0.0 mm meteobridge W/m2
07:36 57.7 °F /  14.3 °C 57.7 °F /  14.3 °C 29.7 in /  1006.0 hPa Calm   2.2 mph /  3.5 km/h 100 % 0 in /  0.0 mm meteobridge W/m2
07:42 57.9 °F /  14.4 °C 57.9 °F /  14.4 °C 29.7 in /  1006.0 hPa Calm     100 % 0 in /  0.0 mm meteobridge W/m2
07:49 57.9 °F /  14.4 °C 57.9 °F /  14.4 °C 29.7 in /  1006.0 hPa Calm     100 % 0 in /  0.0 mm meteobridge W/m2
07:56 58.1 °F /  14.5 °C 58.1 °F /  14.5 °C 29.7 in /  1007.0 hPa Calm     100 % 0 in /  0.0 mm meteobridge W/m2
08:02 58.1 °F /  14.5 °C 58.1 °F /  14.5 °C 29.7 in /  1007.0 hPa Calm     100 % 0 in /  0.0 mm meteobridge W/m2
08:08 58.1 °F /  14.5 °C 58.1 °F /  14.5 °C 29.7 in /  1007.0 hPa Calm   -998.7 mph /  -1607.4 km/h 100 % 0 in /  0.0 mm meteobridge W/m2
08:14 58.1 °F /  14.5 °C 58.1 °F /  14.5 °C 29.7 in /  1007.0 hPa Calm     100 % 0 in /  0.0 mm meteobridge W/m2
08:20 57.9 °F /  14.4 °C 57.9 °F /  14.4 °C 29.7 in /  1007.0 hPa Calm     100 % 0 in /  0.0 mm meteobridge W/m2
08:26 57.9 °F /  14.4 °C 57.9 °F /  14.4 °C 29.7 in /  1007.0 hPa Calm   -998.7 mph /  -1607.4 km/h 100 % 0 in /  0.0 mm meteobridge W/m2
08:32 58.1 °F /  14.5 °C 58.1 °F /  14.5 °C 29.7 in /  1007.0 hPa SW 1.1 mph /  1.8 km/h 1.1 mph /  1.8 km/h 100 % 0 in /  0.0 mm meteobridge W/m2
08:37 57.9 °F /  14.4 °C 57.9 °F /  14.4 °C 29.7 in /  1007.0 hPa Calm     100 % 0 in /  0.0 mm meteobridge W/m2
08:38 57.9 °F /  14.4 °C 57.9 °F /  14.4 °C 29.7 in /  1007.0 hPa Calm     100 % 0 in /  0.0 mm meteobridge W/m2
08:43 57.9 °F /  14.4 °C 57.9 °F /  14.4 °C 29.7 in /  1007.0 hPa SSW 0.9 mph /  1.4 km/h 0.9 mph /  1.4 km/h 100 % 0 in /  0.0 mm meteobridge W/m2
08:48 57.9 °F /  14.4 °C 57.9 °F /  14.4 °C 29.7 in /  1007.0 hPa SSE 2.2 mph /  3.5 km/h 3.1 mph /  5.0 km/h 100 % 0 in /  0.0 mm meteobridge W/m2
08:53 57.9 °F /  14.4 °C 57.9 °F /  14.4 °C 29.7 in /  1007.0 hPa Calm     100 % 0 in /  0.0 mm meteobridge W/m2
08:56 58.1 °F /  14.5 °C 58.1 °F /  14.5 °C 29.7 in /  1007.0 hPa Calm     100 % 0 in /  0.0 mm meteobridge W/m2
08:59 57.9 °F /  14.4 °C 57.9 °F /  14.4 °C 29.7 in /  1007.0 hPa Calm   2.5 mph /  4.0 km/h 100 % 0 in /  0.0 mm meteobridge W/m2
09:09 57.6 °F /  14.2 °C 57.6 °F /  14.2 °C 29.7 in /  1007.0 hPa SSE 0.9 mph /  1.4 km/h 1.3 mph /  2.1 km/h 100 % 0 in /  0.0 mm meteobridge W/m2
09:15 57.4 °F /  14.1 °C 57.4 °F /  14.1 °C 29.7 in /  1007.0 hPa SSE 4.7 mph /  7.6 km/h 4.7 mph /  7.6 km/h 100 % 0 in /  0.0 mm meteobridge W/m2
09:21 57.6 °F /  14.2 °C 57.2 °F /  14.0 °C 29.7 in /  1007.0 hPa Calm     99 % 0 in /  0.0 mm meteobridge W/m2
09:27 57.6 °F /  14.2 °C 57.2 °F /  14.0 °C 29.7 in /  1007.0 hPa SSE 1.3 mph /  2.1 km/h 1.3 mph /  2.1 km/h 99 % 0 in /  0.0 mm meteobridge W/m2
09:34 57.6 °F /  14.2 °C 57.2 °F /  14.0 °C 29.7 in /  1007.0 hPa SSW 1.1 mph /  1.8 km/h 1.1 mph /  1.8 km/h 99 % 0 in /  0.0 mm meteobridge W/m2
09:41 57.6 °F /  14.2 °C 57.2 °F /  14.0 °C 29.7 in /  1007.0 hPa SSE 2 mph /  3.2 km/h 2 mph /  3.2 km/h 99 % 0 in /  0.0 mm meteobridge W/m2
09:47 57.6 °F /  14.2 °C 57.2 °F /  14.0 °C 29.7 in /  1007.0 hPa Calm     99 % 0 in /  0.0 mm meteobridge W/m2
09:52 57.7 °F /  14.3 °C 57.4 °F /  14.1 °C 29.7 in /  1007.0 hPa ESE 1.6 mph /  2.6 km/h 1.6 mph /  2.6 km/h 99 % 0 in /  0.0 mm meteobridge W/m2
09:59 57.7 °F /  14.3 °C 57.4 °F /  14.1 °C 29.7 in /  1007.0 hPa SW 1.3 mph /  2.1 km/h 1.3 mph /  2.1 km/h 99 % 0 in /  0.0 mm meteobridge W/m2
10:05 57.7 °F /  14.3 °C 57.4 °F /  14.1 °C 29.7 in /  1007.0 hPa Calm   0.9 mph /  1.4 km/h 99 % 0 in /  0.0 mm meteobridge W/m2
10:11 57.9 °F /  14.4 °C 57.4 °F /  14.1 °C 29.7 in /  1007.0 hPa Calm     98 % 0 in /  0.0 mm meteobridge W/m2
10:17 57.7 °F /  14.3 °C 56.8 °F /  13.8 °C 29.7 in /  1007.0 hPa South 5.8 mph /  9.3 km/h 5.8 mph /  9.3 km/h 97 % 0 in /  0.0 mm meteobridge W/m2
10:23 57.7 °F /  14.3 °C 56.8 °F /  13.8 °C 29.7 in /  1007.0 hPa Calm     97 % 0 in /  0.0 mm meteobridge W/m2
10:29 57.7 °F /  14.3 °C 56.7 °F /  13.7 °C 29.7 in /  1007.0 hPa Calm     96 % 0 in /  0.0 mm meteobridge W/m2
10:35 57.7 °F /  14.3 °C 56.7 °F /  13.7 °C 29.7 in /  1007.0 hPa Calm     96 % 0 in /  0.0 mm meteobridge W/m2
10:41 57.6 °F /  14.2 °C 56.5 °F /  13.6 °C 29.7 in /  1007.0 hPa SE 1.1 mph /  1.8 km/h 1.1 mph /  1.8 km/h 96 % 0 in /  0.0 mm meteobridge W/m2
10:47 57.4 °F /  14.1 °C 55.9 °F /  13.3 °C 29.7 in /  1007.0 hPa ESE 2.2 mph /  3.5 km/h 2.2 mph /  3.5 km/h 95 % 0 in /  0.0 mm meteobridge W/m2
10:53 57.4 °F /  14.1 °C 55.9 °F /  13.3 °C 29.7 in /  1007.0 hPa SSE 4 mph /  6.4 km/h 4 mph /  6.4 km/h 95 % 0 in /  0.0 mm meteobridge W/m2
10:59 57.4 °F /  14.1 °C 55.9 °F /  13.3 °C 29.7 in /  1007.0 hPa SSE 3.6 mph /  5.8 km/h 3.6 mph /  5.8 km/h 95 % 0 in /  0.0 mm meteobridge W/m2
11:05 57.4 °F /  14.1 °C 55.9 °F /  13.3 °C 29.7 in /  1007.0 hPa Calm   1.6 mph /  2.6 km/h 95 % 0 in /  0.0 mm meteobridge W/m2
11:13 57.7 °F /  14.3 °C 55.8 °F /  13.2 °C 29.7 in /  1007.0 hPa Calm     93 % 0 in /  0.0 mm meteobridge W/m2
11:19 57.7 °F /  14.3 °C 55.8 °F /  13.2 °C 29.7 in /  1007.0 hPa SSW 6.5 mph /  10.5 km/h 6.5 mph /  10.5 km/h 93 % 0 in /  0.0 mm meteobridge W/m2
11:25 58.1 °F /  14.5 °C 55.8 °F /  13.2 °C 29.7 in /  1007.0 hPa South 3.6 mph /  5.8 km/h 3.6 mph /  5.8 km/h 92 % 0 in /  0.0 mm meteobridge W/m2
11:31 58.1 °F /  14.5 °C 55.4 °F /  13.0 °C 29.7 in /  1007.0 hPa ESE 4.7 mph /  7.6 km/h 4.7 mph /  7.6 km/h 91 % 0 in /  0.0 mm meteobridge W/m2
11:37 58.1 °F /  14.5 °C 55.4 °F /  13.0 °C 29.7 in /  1007.0 hPa South 5.4 mph /  8.7 km/h 5.4 mph /  8.7 km/h 91 % 0 in /  0.0 mm meteobridge W/m2
11:43 58.1 °F /  14.5 °C 55.4 °F /  13.0 °C 29.8 in /  1008.0 hPa SSW 4.7 mph /  7.6 km/h 4.7 mph /  7.6 km/h 91 % 0 in /  0.0 mm meteobridge W/m2
11:49 58.8 °F /  14.9 °C 56.1 °F /  13.4 °C 29.8 in /  1008.0 hPa NNW 3.1 mph /  5.0 km/h 3.1 mph /  5.0 km/h 91 % 0 in /  0.0 mm meteobridge W/m2
11:55 58.8 °F /  14.9 °C 55.9 °F /  13.3 °C 29.8 in /  1008.0 hPa SSE 3.6 mph /  5.8 km/h 3.6 mph /  5.8 km/h 90 % 0 in /  0.0 mm meteobridge W/m2
12:01 59.4 °F /  15.2 °C 56.1 °F /  13.4 °C 29.8 in /  1008.0 hPa Calm     89 % 0 in /  0.0 mm meteobridge W/m2
12:07 59.9 °F /  15.5 °C 56.7 °F /  13.7 °C 29.8 in /  1008.0 hPa SSW 2.7 mph /  4.3 km/h 3.6 mph /  5.8 km/h 89 % 0 in /  0.0 mm meteobridge W/m2
12:13 60.4 °F /  15.8 °C 57.2 °F /  14.0 °C 29.8 in /  1008.0 hPa SSE 1.3 mph /  2.1 km/h 1.3 mph /  2.1 km/h 89 % 0 in /  0.0 mm meteobridge W/m2
12:19 60.4 °F /  15.8 °C 56.5 °F /  13.6 °C 29.8 in /  1008.0 hPa South 2.5 mph /  4.0 km/h 2.5 mph /  4.0 km/h 87 % 0 in /  0.0 mm meteobridge W/m2
12:25 59.4 °F /  15.2 °C 55.2 °F /  12.9 °C 29.8 in /  1008.0 hPa SSE 2 mph /  3.2 km/h 4 mph /  6.4 km/h 86 % 0 in /  0.0 mm meteobridge W/m2
12:31 59.5 °F /  15.3 °C 55 °F /  12.8 °C 29.8 in /  1008.0 hPa South 3.4 mph /  5.5 km/h 3.4 mph /  5.5 km/h 85 % 0 in /  0.0 mm meteobridge W/m2
12:37 59.4 °F /  15.2 °C 54.9 °F /  12.7 °C 29.8 in /  1008.0 hPa South 2 mph /  3.2 km/h 2 mph /  3.2 km/h 85 % 0 in /  0.0 mm meteobridge W/m2
12:43 59.2 °F /  15.1 °C 54.3 °F /  12.4 °C 29.8 in /  1008.0 hPa WNW 1.6 mph /  2.6 km/h 1.6 mph /  2.6 km/h 84 % 0 in /  0.0 mm meteobridge W/m2
12:55 59.4 °F /  15.2 °C 54.5 °F /  12.5 °C 29.7 in /  1007.0 hPa SSE 2.2 mph /  3.5 km/h 2.2 mph /  3.5 km/h 84 % 0 in /  0.0 mm meteobridge W/m2
13:01 59.4 °F /  15.2 °C 54.5 °F /  12.5 °C 29.7 in /  1007.0 hPa Calm     84 % 0 in /  0.0 mm meteobridge W/m2
13:07 59.4 °F /  15.2 °C 54.5 °F /  12.5 °C 29.7 in /  1007.0 hPa South 3.4 mph /  5.5 km/h 3.4 mph /  5.5 km/h 84 % 0 in /  0.0 mm meteobridge W/m2
13:19 59.5 °F /  15.3 °C 54.3 °F /  12.4 °C 29.7 in /  1007.0 hPa South 2.7 mph /  4.3 km/h 2.7 mph /  4.3 km/h 83 % 0 in /  0.0 mm meteobridge W/m2
13:25 59.7 °F /  15.4 °C 54.5 °F /  12.5 °C 29.7 in /  1007.0 hPa WNW 2.2 mph /  3.5 km/h 2.2 mph /  3.5 km/h 83 % 0 in /  0.0 mm meteobridge W/m2
13:31 60.1 °F /  15.6 °C 54.9 °F /  12.7 °C 29.7 in /  1007.0 hPa WSW 3.6 mph /  5.8 km/h 3.6 mph /  5.8 km/h 83 % 0 in /  0.0 mm meteobridge W/m2
13:37 59.7 °F /  15.4 °C 54.5 °F /  12.5 °C 29.7 in /  1007.0 hPa West 1.6 mph /  2.6 km/h 1.6 mph /  2.6 km/h 83 % 0 in /  0.0 mm meteobridge W/m2
13:43 59.7 °F /  15.4 °C 54.9 °F /  12.7 °C 29.7 in /  1007.0 hPa SSW 2 mph /  3.2 km/h 2 mph /  3.2 km/h 84 % 0 in /  0.0 mm meteobridge W/m2
13:49 59.4 °F /  15.2 °C 54.5 °F /  12.5 °C 29.7 in /  1007.0 hPa Calm     84 % 0 in /  0.0 mm meteobridge W/m2
13:55 59.2 °F /  15.1 °C 54.3 °F /  12.4 °C 29.7 in /  1007.0 hPa SE 5.4 mph /  8.7 km/h 5.4 mph /  8.7 km/h 84 % 0 in /  0.0 mm meteobridge W/m2
14:01 58.8 °F /  14.9 °C 54 °F /  12.2 °C 29.7 in /  1007.0 hPa SSW 3.1 mph /  5.0 km/h 4.3 mph /  6.9 km/h 84 % 0 in /  0.0 mm meteobridge W/m2
14:07 58.8 °F /  14.9 °C 54 °F /  12.2 °C 29.7 in /  1007.0 hPa SSW 2.2 mph /  3.5 km/h 3.4 mph /  5.5 km/h 84 % 0 in /  0.0 mm meteobridge W/m2
14:13 58.6 °F /  14.8 °C 54.1 °F /  12.3 °C 29.8 in /  1008.0 hPa WNW 3.1 mph /  5.0 km/h 3.1 mph /  5.0 km/h 85 % 0 in /  0.0 mm meteobridge W/m2
14:19 58.5 °F /  14.7 °C 54.3 °F /  12.4 °C 29.8 in /  1008.0 hPa South 2.5 mph /  4.0 km/h 2.5 mph /  4.0 km/h 86 % 0 in /  0.0 mm meteobridge W/m2
14:25 58.5 °F /  14.7 °C 54.3 °F /  12.4 °C 29.7 in /  1007.0 hPa SSE 1.3 mph /  2.1 km/h 1.3 mph /  2.1 km/h 86 % 0 in /  0.0 mm meteobridge W/m2
14:31 58.1 °F /  14.5 °C 54.3 °F /  12.4 °C 29.7 in /  1007.0 hPa South 1.3 mph /  2.1 km/h 1.3 mph /  2.1 km/h 87 % 0 in /  0.0 mm meteobridge W/m2
14:37 57.9 °F /  14.4 °C 54.7 °F /  12.6 °C 29.7 in /  1007.0 hPa SSE 2.9 mph /  4.7 km/h 2.9 mph /  4.7 km/h 89 % 0 in /  0.0 mm meteobridge W/m2
14:43 57.7 °F /  14.3 °C 54.5 °F /  12.5 °C 29.7 in /  1007.0 hPa SSW 1.6 mph /  2.6 km/h 1.6 mph /  2.6 km/h 89 % 0 in /  0.0 mm meteobridge W/m2
14:49 57.7 °F /  14.3 °C 54.5 °F /  12.5 °C 29.7 in /  1007.0 hPa SSW 2 mph /  3.2 km/h 2 mph /  3.2 km/h 89 % 0 in /  0.0 mm meteobridge W/m2
14:55 57.2 °F /  14.0 °C 54.7 °F /  12.6 °C 29.8 in /  1008.0 hPa SSE 1.1 mph /  1.8 km/h 1.1 mph /  1.8 km/h 91 % 0 in /  0.0 mm meteobridge W/m2
15:01 57 °F /  13.9 °C 54.5 °F /  12.5 °C 29.8 in /  1008.0 hPa South 4 mph /  6.4 km/h 4 mph /  6.4 km/h 91 % 0 in /  0.0 mm meteobridge W/m2
15:09 56.7 °F /  13.7 °C 54.1 °F /  12.3 °C -100 in /  -3386.0 hPa South 6.9 mph /  11.1 km/h 6.9 mph /  11.1 km/h 91 % 0 in /  0.0 mm meteobridge W/m2
15:16 55.9 °F /  13.3 °C 53.4 °F /  11.9 °C 29.8 in /  1008.0 hPa SSE 2.5 mph /  4.0 km/h 2.5 mph /  4.0 km/h 91 % 0 in /  0.0 mm meteobridge W/m2
15:22 55.6 °F /  13.1 °C 53.2 °F /  11.8 °C 29.8 in /  1008.0 hPa SSW 1.6 mph /  2.6 km/h 1.6 mph /  2.6 km/h 92 % 0 in /  0.0 mm meteobridge W/m2
15:28 55.2 °F /  12.9 °C 53.2 °F /  11.8 °C 29.8 in /  1009.0 hPa Calm   -998.7 mph /  -1607.4 km/h 93 % 0 in /  0.0 mm meteobridge W/m2
15:34 55.2 °F /  12.9 °C 53.6 °F /  12.0 °C 29.8 in /  1009.0 hPa SSE 4.3 mph /  6.9 km/h 4.3 mph /  6.9 km/h 94 % 0 in /  0.0 mm meteobridge W/m2
15:40 55 °F /  12.8 °C 53.4 °F /  11.9 °C 29.8 in /  1008.0 hPa West 4.3 mph /  6.9 km/h 4.3 mph /  6.9 km/h 94 % 0 in /  0.0 mm meteobridge W/m2
15:46 55 °F /  12.8 °C 53.6 °F /  12.0 °C 29.8 in /  1008.0 hPa SSW 0.9 mph /  1.4 km/h 0.9 mph /  1.4 km/h 95 % 0 in /  0.0 mm meteobridge W/m2
15:52 55.2 °F /  12.9 °C 53.8 °F /  12.1 °C 29.8 in /  1008.0 hPa SSW 1.6 mph /  2.6 km/h 1.6 mph /  2.6 km/h 95 % 0 in /  0.0 mm meteobridge W/m2
15:58 55.2 °F /  12.9 °C 53.8 °F /  12.1 °C 29.8 in /  1009.0 hPa SSE 2.9 mph /  4.7 km/h 2.9 mph /  4.7 km/h 95 % 0 in /  0.0 mm meteobridge W/m2
16:04 55.4 °F /  13.0 °C 54 °F /  12.2 °C 29.8 in /  1009.0 hPa WSW 3.8 mph /  6.1 km/h 8.5 mph /  13.7 km/h 95 % 0 in /  0.0 mm meteobridge W/m2
16:10 55.4 °F /  13.0 °C 54 °F /  12.2 °C 29.8 in /  1009.0 hPa SSW 3.6 mph /  5.8 km/h 5.6 mph /  9.0 km/h 95 % 0 in /  0.0 mm meteobridge W/m2
16:16 55 °F /  12.8 °C 53.1 °F /  11.7 °C 29.8 in /  1009.0 hPa NNE 3.6 mph /  5.8 km/h 3.6 mph /  5.8 km/h 93 % 0 in /  0.0 mm meteobridge W/m2
16:22 54.9 °F /  12.7 °C 52.9 °F /  11.6 °C 29.8 in /  1009.0 hPa SSW 3.4 mph /  5.5 km/h 3.4 mph /  5.5 km/h 93 % 0 in /  0.0 mm meteobridge W/m2
16:28 54.7 °F /  12.6 °C 52.7 °F /  11.5 °C 29.8 in /  1009.0 hPa SSW 1.1 mph /  1.8 km/h 1.1 mph /  1.8 km/h 93 % 0 in /  0.0 mm meteobridge W/m2
16:34 54.7 °F /  12.6 °C 52.7 °F /  11.5 °C 29.8 in /  1009.0 hPa SSW 1.1 mph /  1.8 km/h 1.1 mph /  1.8 km/h 93 % 0 in /  0.0 mm meteobridge W/m2
16:40 54.3 °F /  12.4 °C 52.7 °F /  11.5 °C 29.8 in /  1010.0 hPa SSE 3.6 mph /  5.8 km/h 3.6 mph /  5.8 km/h 94 % 0 in /  0.0 mm meteobridge W/m2
16:46 54.1 °F /  12.3 °C 52.5 °F /  11.4 °C 29.8 in /  1010.0 hPa NNW 4.5 mph /  7.2 km/h 4.5 mph /  7.2 km/h 94 % 0 in /  0.0 mm meteobridge W/m2
16:52 54 °F /  12.2 °C 52.3 °F /  11.3 °C 29.8 in /  1010.0 hPa Calm     94 % 0 in /  0.0 mm meteobridge W/m2
16:58 54 °F /  12.2 °C 52.3 °F /  11.3 °C 29.8 in /  1010.0 hPa SSW 2.5 mph /  4.0 km/h 2.5 mph /  4.0 km/h 94 % 0 in /  0.0 mm meteobridge W/m2
17:04 54 °F /  12.2 °C 52.3 °F /  11.3 °C 29.8 in /  1010.0 hPa South 3.1 mph /  5.0 km/h 3.1 mph /  5.0 km/h 94 % 0 in /  0.0 mm meteobridge W/m2
17:10 53.8 °F /  12.1 °C 52.2 °F /  11.2 °C 29.8 in /  1010.0 hPa SSW 1.6 mph /  2.6 km/h 1.6 mph /  2.6 km/h 94 % 0 in /  0.0 mm meteobridge W/m2
17:16 53.8 °F /  12.1 °C 52.2 °F /  11.2 °C 29.8 in /  1010.0 hPa SSE 1.3 mph /  2.1 km/h 1.3 mph /  2.1 km/h 94 % 0 in /  0.0 mm meteobridge W/m2
17:23 53.6 °F /  12.0 °C 52.2 °F /  11.2 °C 29.8 in /  1010.0 hPa SSE 1.6 mph /  2.6 km/h 1.6 mph /  2.6 km/h 95 % 0 in /  0.0 mm meteobridge W/m2
17:29 53.6 °F /  12.0 °C 52.2 °F /  11.2 °C 29.8 in /  1010.0 hPa SW 3.8 mph /  6.1 km/h 5.8 mph /  9.3 km/h 95 % 0 in /  0.0 mm meteobridge W/m2
17:35 53.6 °F /  12.0 °C 52 °F /  11.1 °C 29.8 in /  1010.0 hPa SSE 2.7 mph /  4.3 km/h 3.6 mph /  5.8 km/h 94 % 0 in /  0.0 mm meteobridge W/m2
17:41 53.4 °F /  11.9 °C 51.8 °F /  11.0 °C 29.8 in /  1010.0 hPa SW 3.8 mph /  6.1 km/h 3.8 mph /  6.1 km/h 94 % 0 in /  0.0 mm meteobridge W/m2
17:47 53.4 °F /  11.9 °C 51.4 °F /  10.8 °C 29.8 in /  1010.0 hPa SSW 2.7 mph /  4.3 km/h 2.7 mph /  4.3 km/h 93 % 0 in /  0.0 mm meteobridge W/m2
17:53 53.4 °F /  11.9 °C 51.4 °F /  10.8 °C 29.8 in /  1010.0 hPa Calm     93 % 0 in /  0.0 mm meteobridge W/m2
17:59 53.4 °F /  11.9 °C 51.8 °F /  11.0 °C 29.8 in /  1010.0 hPa SSE 2 mph /  3.2 km/h 2 mph /  3.2 km/h 94 % 0 in /  0.0 mm meteobridge W/m2
18:05 53.4 °F /  11.9 °C 51.8 °F /  11.0 °C 29.8 in /  1010.0 hPa West 4 mph /  6.4 km/h 4 mph /  6.4 km/h 94 % 0 in /  0.0 mm meteobridge W/m2
18:11 53.2 °F /  11.8 °C 51.3 °F /  10.7 °C 29.8 in /  1010.7 hPa WNW 1.6 mph /  2.6 km/h 2.9 mph /  4.7 km/h 93 % 0 in /  0.0 mm meteobridge W/m2
18:17 53.2 °F /  11.8 °C 51.3 °F /  10.7 °C 29.8 in /  1010.7 hPa SSE 2.9 mph /  4.7 km/h 3.8 mph /  6.1 km/h 93 % 0 in /  0.0 mm meteobridge W/m2
18:23 53.2 °F /  11.8 °C 51.3 °F /  10.7 °C 29.8 in /  1010.7 hPa SSE 3.8 mph /  6.1 km/h 3.8 mph /  6.1 km/h 93 % 0 in /  0.0 mm meteobridge W/m2
18:29 53.2 °F /  11.8 °C 51.3 °F /  10.7 °C 29.8 in /  1010.0 hPa South 3.6 mph /  5.8 km/h 3.6 mph /  5.8 km/h 93 % 0 in /  0.0 mm meteobridge W/m2
18:35 53.2 °F /  11.8 °C 51.3 °F /  10.7 °C 29.8 in /  1010.0 hPa SSW 1.3 mph /  2.1 km/h 3.1 mph /  5.0 km/h 93 % 0 in /  0.0 mm meteobridge W/m2
18:47 53.1 °F /  11.7 °C 51.1 °F /  10.6 °C 29.8 in /  1010.0 hPa South 5.4 mph /  8.7 km/h 5.4 mph /  8.7 km/h 93 % 0 in /  0.0 mm meteobridge W/m2
18:53 52.9 °F /  11.6 °C 50.9 °F /  10.5 °C 29.8 in /  1010.0 hPa Calm     93 % 0 in /  0.0 mm meteobridge W/m2
18:59 52.9 °F /  11.6 °C 50.9 °F /  10.5 °C 29.8 in /  1010.0 hPa Calm   -998.7 mph /  -1607.4 km/h 93 % 0 in /  0.0 mm meteobridge W/m2
20:23 52.3 °F /  11.3 °C 50 °F /  10.0 °C 29.8 in /  1010.7 hPa SSW 2 mph /  3.2 km/h 2 mph /  3.2 km/h 92 % 0 in /  0.0 mm meteobridge W/m2
20:29 52.2 °F /  11.2 °C 49.8 °F /  9.9 °C 29.8 in /  1010.7 hPa SSW 1.1 mph /  1.8 km/h 1.1 mph /  1.8 km/h 92 % 0 in /  0.0 mm meteobridge W/m2
20:35 52.3 °F /  11.3 °C 50 °F /  10.0 °C 29.8 in /  1010.7 hPa SSW 1.3 mph /  2.1 km/h 1.3 mph /  2.1 km/h 92 % 0 in /  0.0 mm meteobridge W/m2
20:41 52.3 °F /  11.3 °C 50 °F /  10.0 °C 29.8 in /  1010.7 hPa SSE 6 mph /  9.7 km/h 6 mph /  9.7 km/h 92 % 0 in /  0.0 mm meteobridge W/m2
20:47 52.2 °F /  11.2 °C 49.8 °F /  9.9 °C 29.8 in /  1010.7 hPa SSW 2.9 mph /  4.7 km/h 2.9 mph /  4.7 km/h 92 % 0 in /  0.0 mm meteobridge W/m2
20:53 52 °F /  11.1 °C 49.6 °F /  9.8 °C 29.8 in /  1010.7 hPa SW 6 mph /  9.7 km/h 6 mph /  9.7 km/h 92 % 0 in /  0.0 mm meteobridge W/m2
20:59 52 °F /  11.1 °C 49.6 °F /  9.8 °C 29.8 in /  1010.7 hPa Calm   4.7 mph /  7.6 km/h 92 % 0 in /  0.0 mm meteobridge W/m2
21:06 52 °F /  11.1 °C 49.6 °F /  9.8 °C 29.8 in /  1010.7 hPa Calm   -998.7 mph /  -1607.4 km/h 92 % 0 in /  0.0 mm meteobridge W/m2
21:13 52 °F /  11.1 °C 49.6 °F /  9.8 °C 29.8 in /  1010.7 hPa SSE 1.1 mph /  1.8 km/h 1.1 mph /  1.8 km/h 92 % 0 in /  0.0 mm meteobridge W/m2
21:19 51.4 °F /  10.8 °C 49.5 °F /  9.7 °C 29.8 in /  1010.7 hPa SSW 2.9 mph /  4.7 km/h 2.9 mph /  4.7 km/h 93 % 0 in /  0.0 mm meteobridge W/m2
21:25 51.4 °F /  10.8 °C 49.5 °F /  9.7 °C 29.8 in /  1010.7 hPa SSW 4.7 mph /  7.6 km/h 4.7 mph /  7.6 km/h 93 % 0 in /  0.0 mm meteobridge W/m2
21:31 51.1 °F /  10.6 °C 49.1 °F /  9.5 °C 29.8 in /  1010.7 hPa South 1.3 mph /  2.1 km/h 1.3 mph /  2.1 km/h 93 % 0 in /  0.0 mm meteobridge W/m2
21:37 51.1 °F /  10.6 °C 49.1 °F /  9.5 °C 29.8 in /  1010.7 hPa SW 1.1 mph /  1.8 km/h 1.1 mph /  1.8 km/h 93 % 0 in /  0.0 mm meteobridge W/m2
21:43 50.9 °F /  10.5 °C 48.9 °F /  9.4 °C 29.8 in /  1010.7 hPa SSE 1.6 mph /  2.6 km/h 1.6 mph /  2.6 km/h 93 % 0 in /  0.0 mm meteobridge W/m2
21:49 50.7 °F /  10.4 °C 48.7 °F /  9.3 °C 29.8 in /  1010.7 hPa Calm   1.6 mph /  2.6 km/h 93 % 0 in /  0.0 mm meteobridge W/m2
21:55 50.5 °F /  10.3 °C 48.9 °F /  9.4 °C 29.9 in /  1011.7 hPa SSW 3.6 mph /  5.8 km/h 3.6 mph /  5.8 km/h 94 % 0 in /  0.0 mm meteobridge W/m2
22:01 50.5 °F /  10.3 °C 48.9 °F /  9.4 °C 29.9 in /  1011.7 hPa NNE 0.9 mph /  1.4 km/h 0.9 mph /  1.4 km/h 94 % 0 in /  0.0 mm meteobridge W/m2
22:07 50.5 °F /  10.3 °C 48.9 °F /  9.4 °C 29.9 in /  1011.7 hPa SE 3.6 mph /  5.8 km/h 3.6 mph /  5.8 km/h 94 % 0 in /  0.0 mm meteobridge W/m2
22:13 50.5 °F /  10.3 °C 48.9 °F /  9.4 °C 29.9 in /  1011.7 hPa Calm   1.1 mph /  1.8 km/h 94 % 0 in /  0.0 mm meteobridge W/m2
22:19 50.5 °F /  10.3 °C 48.9 °F /  9.4 °C 29.9 in /  1011.7 hPa SSE 2 mph /  3.2 km/h 2 mph /  3.2 km/h 94 % 0 in /  0.0 mm meteobridge W/m2
22:25 50.4 °F /  10.2 °C 48.7 °F /  9.3 °C 29.9 in /  1011.7 hPa SSW 2.2 mph /  3.5 km/h 2.2 mph /  3.5 km/h 94 % 0 in /  0.0 mm meteobridge W/m2
22:31 50.4 °F /  10.2 °C 48.7 °F /  9.3 °C 29.9 in /  1011.7 hPa SSE 3.4 mph /  5.5 km/h 3.4 mph /  5.5 km/h 94 % 0 in /  0.0 mm meteobridge W/m2
22:36 50.4 °F /  10.2 °C 48.9 °F /  9.4 °C 29.9 in /  1011.7 hPa Calm   3.1 mph /  5.0 km/h 95 % 0 in /  0.0 mm meteobridge W/m2
22:42 50.4 °F /  10.2 °C 48.9 °F /  9.4 °C 29.9 in /  1011.7 hPa Calm   0.9 mph /  1.4 km/h 95 % 0 in /  0.0 mm meteobridge W/m2
22:49 50.2 °F /  10.1 °C 48.7 °F /  9.3 °C 29.9 in /  1011.7 hPa Calm     95 % 0 in /  0.0 mm meteobridge W/m2
22:55 50.2 °F /  10.1 °C 48.7 °F /  9.3 °C 29.9 in /  1011.7 hPa NNW 1.1 mph /  1.8 km/h 4 mph /  6.4 km/h 95 % 0 in /  0.0 mm meteobridge W/m2
23:01 50 °F /  10.0 °C 48.6 °F /  9.2 °C 29.9 in /  1011.7 hPa SE 2.7 mph /  4.3 km/h 2.7 mph /  4.3 km/h 95 % 0 in /  0.0 mm meteobridge W/m2
23:07 50 °F /  10.0 °C 48.6 °F /  9.2 °C 29.9 in /  1011.7 hPa SSE 3.1 mph /  5.0 km/h 3.1 mph /  5.0 km/h 95 % 0 in /  0.0 mm meteobridge W/m2
23:13 50 °F /  10.0 °C 48.6 °F /  9.2 °C 29.9 in /  1011.7 hPa SSE 3.1 mph /  5.0 km/h 3.1 mph /  5.0 km/h 95 % 0 in /  0.0 mm meteobridge W/m2
23:32 50.2 °F /  10.1 °C 48.6 °F /  9.2 °C 29.9 in /  1011.7 hPa SW 2.2 mph /  3.5 km/h 2.2 mph /  3.5 km/h 94 % 0 in /  0.0 mm meteobridge W/m2
23:38 50.2 °F /  10.1 °C 48.6 °F /  9.2 °C 29.9 in /  1011.7 hPa Calm     94 % 0 in /  0.0 mm meteobridge W/m2
23:45 50.2 °F /  10.1 °C 48.6 °F /  9.2 °C 29.9 in /  1011.7 hPa SSW 2.5 mph /  4.0 km/h 2.5 mph /  4.0 km/h 94 % 0 in /  0.0 mm meteobridge W/m2
23:51 50 °F /  10.0 °C 48.4 °F /  9.1 °C 29.9 in /  1011.7 hPa SSW 1.6 mph /  2.6 km/h 2.9 mph /  4.7 km/h 94 % 0 in /  0.0 mm meteobridge W/m2
23:56 50 °F /  10.0 °C 48.4 °F /  9.1 °C 29.9 in /  1011.7 hPa SSE 3.6 mph /  5.8 km/h 3.6 mph /  5.8 km/h 94 % 0 in /  0.0 mm meteobridge W/m2
Juneau County Weather
Compliments of Weather Underground - 2.25 mb